createdAt,value
2023-06-12T00:00:13.972Z,11.57
2023-06-12T00:02:42.271Z,11.52
2023-06-12T00:05:11.440Z,11.48
2023-06-12T00:07:39.545Z,11.46
2023-06-12T00:10:10.879Z,11.37
2023-06-12T00:12:42.170Z,11.40
2023-06-12T00:15:10.609Z,11.34
2023-06-12T00:17:40.129Z,11.24
2023-06-12T00:20:09.691Z,11.20
2023-06-12T00:22:41.281Z,11.13
2023-06-12T00:25:10.606Z,11.11
2023-06-12T00:27:38.566Z,11.12
2023-06-12T00:30:08.154Z,11.06
2023-06-12T00:32:37.077Z,10.92
2023-06-12T00:35:07.902Z,10.95
2023-06-12T00:37:37.201Z,10.89
2023-06-12T00:40:06.288Z,10.82
2023-06-12T00:42:35.443Z,10.74
2023-06-12T00:45:03.664Z,10.74
2023-06-12T00:47:38.472Z,10.72
2023-06-12T00:50:14.348Z,10.71
2023-06-12T00:52:47.162Z,10.64
2023-06-12T00:55:19.808Z,10.55
2023-06-12T00:57:50.949Z,10.39
2023-06-12T01:00:20.440Z,10.34
2023-06-12T01:02:52.880Z,10.33
2023-06-12T01:05:30.291Z,10.27
2023-06-12T01:08:10.595Z,10.23
2023-06-12T01:10:43.485Z,10.22
2023-06-12T01:13:13.092Z,10.20
2023-06-12T01:15:46.140Z,10.18
2023-06-12T01:18:14.264Z,10.16
2023-06-12T01:20:46.408Z,10.11
2023-06-12T01:23:24.332Z,10.02
2023-06-12T01:26:22.841Z,10.07
2023-06-12T01:29:28.643Z,10.04
2023-06-12T01:32:05.455Z,9.95
2023-06-12T01:34:39.455Z,9.91
2023-06-12T01:37:17.754Z,9.93
2023-06-12T01:39:57.797Z,9.95
2023-06-12T01:42:28.230Z,9.93
2023-06-12T01:44:56.501Z,9.96
2023-06-12T01:47:26.079Z,9.95
2023-06-12T01:49:54.343Z,9.92
2023-06-12T01:52:22.467Z,9.86
2023-06-12T01:54:51.068Z,9.76
2023-06-12T01:57:20.867Z,9.79
2023-06-12T01:59:49.469Z,9.74
2023-06-12T02:02:18.057Z,9.73
2023-06-12T02:04:49.943Z,9.71
2023-06-12T02:07:18.722Z,9.66
2023-06-12T02:09:47.988Z,9.69
2023-06-12T02:12:15.945Z,9.62
2023-06-12T02:14:44.114Z,9.64
2023-06-12T02:17:15.378Z,9.76
2023-06-12T02:19:43.807Z,9.75
2023-06-12T02:22:13.403Z,9.72
2023-06-12T02:24:41.813Z,9.75
2023-06-12T02:27:11.425Z,9.73
2023-06-12T02:29:39.408Z,9.81
2023-06-12T02:32:09.076Z,9.80
2023-06-12T02:34:38.163Z,9.80
2023-06-12T02:37:11.959Z,9.85
2023-06-12T02:39:45.814Z,9.88
2023-06-12T02:42:13.892Z,9.83
2023-06-12T02:44:42.085Z,9.87
2023-06-12T02:47:10.188Z,9.94
2023-06-12T02:49:38.962Z,10.07
2023-06-12T02:52:08.305Z,10.08
2023-06-12T02:54:37.577Z,10.08
2023-06-12T02:57:07.776Z,10.15
2023-06-12T02:59:36.077Z,10.13
2023-06-12T03:02:05.141Z,10.24
2023-06-12T03:04:34.478Z,10.31
2023-06-12T03:07:07.046Z,10.42
2023-06-12T03:09:35.918Z,10.48
2023-06-12T03:12:04.467Z,10.49
2023-06-12T03:14:35.169Z,10.53
2023-06-12T03:17:03.651Z,10.54
2023-06-12T03:19:31.719Z,10.61
2023-06-12T03:22:02.158Z,10.68
2023-06-12T03:24:31.080Z,10.77
2023-06-12T03:27:02.594Z,10.81
2023-06-12T03:29:30.623Z,10.88
2023-06-12T03:32:00.692Z,10.99
2023-06-12T03:34:32.567Z,10.97
2023-06-12T03:37:00.562Z,11.03
2023-06-12T03:39:28.504Z,11.13
2023-06-12T03:42:00.581Z,11.18
2023-06-12T03:44:28.568Z,11.21
2023-06-12T03:46:56.641Z,11.22
2023-06-12T03:49:29.982Z,11.35
2023-06-12T03:51:57.952Z,11.40
2023-06-12T03:54:26.281Z,11.47
2023-06-12T03:56:55.793Z,11.51
2023-06-12T03:59:23.755Z,11.61
2023-06-12T04:01:54.013Z,11.61
2023-06-12T04:04:22.029Z,11.61
2023-06-12T04:06:51.766Z,11.64
2023-06-12T04:09:19.772Z,11.63
2023-06-12T04:11:48.855Z,11.61
2023-06-12T04:14:16.863Z,11.68
2023-06-12T04:16:44.811Z,11.69
2023-06-12T04:19:13.628Z,11.75
2023-06-12T04:21:41.746Z,11.78
2023-06-12T04:24:16.969Z,11.82
2023-06-12T04:26:47.494Z,11.93
2023-06-12T04:29:16.430Z,11.99
2023-06-12T04:31:45.024Z,12.05
2023-06-12T04:34:17.599Z,12.12
2023-06-12T04:36:46.585Z,12.21
2023-06-12T04:39:16.236Z,12.27
2023-06-12T04:41:44.291Z,12.37
2023-06-12T04:44:12.500Z,12.54
2023-06-12T04:46:41.084Z,12.60
2023-06-12T04:49:11.664Z,12.70
2023-06-12T04:51:40.253Z,12.82
2023-06-12T04:54:11.326Z,12.91
2023-06-12T04:56:46.239Z,13.01
2023-06-12T04:59:17.963Z,13.14
2023-06-12T05:01:47.331Z,13.24
2023-06-12T05:04:15.435Z,13.35
2023-06-12T05:06:43.469Z,13.44
2023-06-12T05:09:11.518Z,13.56
2023-06-12T05:11:40.874Z,13.66
2023-06-12T05:14:09.116Z,13.74
2023-06-12T05:16:37.210Z,13.84
2023-06-12T05:19:05.215Z,13.92
2023-06-12T05:21:33.210Z,14.02
2023-06-12T05:24:01.359Z,14.14
2023-06-12T05:26:29.443Z,14.28
2023-06-12T05:28:58.791Z,14.35
2023-06-12T05:31:27.272Z,14.45
2023-06-12T05:33:55.031Z,14.57
2023-06-12T05:36:23.140Z,14.67
2023-06-12T05:38:51.091Z,14.79
2023-06-12T05:41:19.261Z,14.86
2023-06-12T05:43:47.536Z,14.97
2023-06-12T05:46:17.046Z,15.08
2023-06-12T05:48:45.331Z,15.22
2023-06-12T05:51:13.275Z,15.32
2023-06-12T05:53:45.764Z,15.41
2023-06-12T05:56:15.188Z,15.49
2023-06-12T05:58:43.526Z,15.56
2023-06-12T06:01:13.002Z,15.66
2023-06-12T06:03:43.996Z,15.77
2023-06-12T06:06:14.198Z,16.00
2023-06-12T06:08:42.856Z,16.00
2023-06-12T06:11:10.842Z,16.12
2023-06-12T06:13:39.073Z,16.30
2023-06-12T06:16:10.650Z,16.33
2023-06-12T06:18:39.305Z,16.45
2023-06-12T06:21:09.918Z,16.52
2023-06-12T06:23:38.072Z,16.62
2023-06-12T06:26:06.927Z,16.76
2023-06-12T06:28:35.026Z,16.86
2023-06-12T06:31:04.714Z,16.87
2023-06-12T06:33:33.707Z,16.96
2023-06-12T06:36:01.701Z,17.02
2023-06-12T06:38:31.149Z,17.02
2023-06-12T06:41:00.529Z,17.13
2023-06-12T06:43:28.771Z,17.22
2023-06-12T06:45:56.828Z,17.31
2023-06-12T06:48:24.798Z,17.40
2023-06-12T06:50:52.884Z,17.49
2023-06-12T06:53:21.065Z,17.65
2023-06-12T06:55:50.439Z,17.64
2023-06-12T06:58:18.395Z,17.74
2023-06-12T07:00:46.614Z,17.76
2023-06-12T07:03:16.398Z,17.81
2023-06-12T07:05:44.476Z,17.85
2023-06-12T07:08:12.441Z,17.93
2023-06-12T07:10:40.448Z,17.95
2023-06-12T07:13:09.900Z,18.00
2023-06-12T07:15:37.920Z,18.09
2023-06-12T07:18:08.740Z,18.19
2023-06-12T07:20:36.832Z,18.20
2023-06-12T07:23:04.919Z,18.28
2023-06-12T07:25:32.899Z,18.41
2023-06-12T07:28:00.883Z,18.46
2023-06-12T07:30:30.680Z,18.51
2023-06-12T07:32:58.956Z,18.49
2023-06-12T07:35:26.806Z,18.52
2023-06-12T07:37:54.735Z,18.62
2023-06-12T07:40:22.788Z,18.63
2023-06-12T07:42:50.877Z,18.72
2023-06-12T07:45:18.902Z,18.80
2023-06-12T07:47:48.926Z,18.84
2023-06-12T07:50:17.015Z,18.87
2023-06-12T07:52:46.285Z,18.92
2023-06-12T07:55:15.921Z,19.03
2023-06-12T07:57:43.965Z,19.08
2023-06-12T08:00:13.049Z,19.14
2023-06-12T08:02:42.234Z,19.20
2023-06-12T08:05:13.142Z,19.25
2023-06-12T08:07:42.376Z,19.33
2023-06-12T08:10:10.755Z,19.39
2023-06-12T08:12:39.258Z,19.37
2023-06-12T08:15:09.077Z,19.38
2023-06-12T08:17:38.277Z,19.45
2023-06-12T08:20:09.684Z,19.49
2023-06-12T08:22:39.667Z,19.55
2023-06-12T08:25:19.610Z,19.73
2023-06-12T08:27:47.675Z,19.79
2023-06-12T08:30:17.796Z,19.91
2023-06-12T08:32:47.143Z,19.90
2023-06-12T08:35:19.407Z,19.93
2023-06-12T08:37:48.791Z,19.99
2023-06-12T08:40:17.242Z,20.09
2023-06-12T08:42:51.058Z,20.20
2023-06-12T08:45:22.440Z,20.32
2023-06-12T08:47:51.233Z,20.38
2023-06-12T08:50:20.424Z,20.49
2023-06-12T08:52:54.228Z,20.51
2023-06-12T08:55:27.159Z,20.48
2023-06-12T08:57:55.148Z,20.48
2023-06-12T09:00:25.200Z,20.51
2023-06-12T09:02:57.919Z,20.58
2023-06-12T09:05:33.025Z,20.61
2023-06-12T09:08:04.333Z,20.66
2023-06-12T09:10:35.456Z,20.85
2023-06-12T09:13:08.234Z,20.94
2023-06-12T09:15:36.870Z,20.95
2023-06-12T09:18:12.446Z,21.12
2023-06-12T09:20:44.341Z,21.15
2023-06-12T09:23:14.725Z,21.15
2023-06-12T09:25:55.385Z,21.20
2023-06-12T09:28:40.370Z,21.33
2023-06-12T09:31:08.377Z,21.35
2023-06-12T09:33:40.437Z,21.39
2023-06-12T09:36:09.026Z,21.54
2023-06-12T09:38:38.740Z,21.55
2023-06-12T09:41:08.780Z,21.45
2023-06-12T09:43:37.086Z,21.37
2023-06-12T09:46:09.688Z,21.52
2023-06-12T09:48:39.320Z,21.60
2023-06-12T09:51:09.887Z,21.62
2023-06-12T09:53:41.276Z,21.64
2023-06-12T09:56:12.252Z,21.71
2023-06-12T09:58:41.297Z,21.75
2023-06-12T10:01:09.864Z,21.82
2023-06-12T10:03:39.925Z,21.79
2023-06-12T10:06:09.284Z,21.88
2023-06-12T10:08:39.634Z,21.87
2023-06-12T10:11:09.380Z,21.89
2023-06-12T10:13:38.115Z,21.97
2023-06-12T10:16:06.959Z,22.03
2023-06-12T10:18:36.298Z,22.01
2023-06-12T10:21:07.005Z,22.00
2023-06-12T10:23:37.384Z,21.98
2023-06-12T10:26:06.919Z,21.91
2023-06-12T10:28:37.099Z,22.05
2023-06-12T10:31:13.506Z,22.17
2023-06-12T10:33:59.541Z,22.31
2023-06-12T10:36:30.456Z,22.35
2023-06-12T10:39:05.125Z,22.54
2023-06-12T10:41:34.376Z,22.62
2023-06-12T10:44:24.847Z,22.71
2023-06-12T10:46:56.766Z,22.78
2023-06-12T10:49:24.728Z,22.84
2023-06-12T10:51:53.522Z,22.98
2023-06-12T10:54:29.609Z,23.03
2023-06-12T10:57:00.483Z,23.10
2023-06-12T10:59:36.658Z,23.19
2023-06-12T11:02:05.344Z,23.20
2023-06-12T11:04:38.714Z,23.30
2023-06-12T11:07:07.804Z,23.24
2023-06-12T11:09:44.648Z,23.35
2023-06-12T11:12:12.662Z,23.35
2023-06-12T11:14:42.258Z,23.39
2023-06-12T11:17:11.394Z,23.34
2023-06-12T11:19:39.570Z,23.38
2023-06-12T11:22:07.504Z,23.46
2023-06-12T11:24:36.452Z,23.44
2023-06-12T11:27:06.818Z,23.56
2023-06-12T11:29:48.583Z,23.57
2023-06-12T11:32:28.173Z,23.67
2023-06-12T11:34:57.200Z,23.71
2023-06-12T11:37:28.335Z,23.79
2023-06-12T11:40:09.926Z,23.87
2023-06-12T11:42:39.371Z,24.05
2023-06-12T11:45:10.807Z,24.19
2023-06-12T11:50:17.976Z,24.24
2023-06-12T11:52:49.653Z,24.36
2023-06-12T11:57:51.462Z,24.28
2023-06-12T12:00:21.849Z,24.49
2023-06-12T12:02:53.414Z,24.49
2023-06-12T12:05:24.303Z,24.56
2023-06-12T12:07:57.473Z,24.64
2023-06-12T12:10:26.430Z,24.64
2023-06-12T12:13:00.764Z,24.59
2023-06-12T12:15:30.875Z,24.36
2023-06-12T12:18:00.792Z,24.40
2023-06-12T12:20:30.862Z,24.46
2023-06-12T12:23:01.135Z,24.57
2023-06-12T12:25:29.973Z,24.66
2023-06-12T12:28:01.268Z,24.69
2023-06-12T12:30:32.308Z,24.59
2023-06-12T12:33:03.493Z,24.61
2023-06-12T12:35:31.575Z,24.63
2023-06-12T12:37:59.356Z,24.39
2023-06-12T12:40:30.082Z,24.44
2023-06-12T12:42:58.300Z,24.49
2023-06-12T12:45:27.419Z,24.50
2023-06-12T12:47:55.518Z,24.64
2023-06-12T12:50:29.022Z,24.72
2023-06-12T12:52:59.010Z,24.73
2023-06-12T12:55:27.360Z,24.79
2023-06-12T12:58:06.000Z,24.92
2023-06-12T13:00:43.535Z,24.97
2023-06-12T13:03:12.839Z,25.00
2023-06-12T13:05:42.567Z,25.11
2023-06-12T13:08:11.671Z,25.20
2023-06-12T13:10:39.804Z,25.28
2023-06-12T13:13:07.833Z,25.38
2023-06-12T13:15:35.680Z,25.41
2023-06-12T13:18:03.888Z,25.46
2023-06-12T13:20:32.058Z,25.59
2023-06-12T13:23:01.379Z,25.77
2023-06-12T13:25:29.607Z,25.81
2023-06-12T13:27:57.592Z,25.84
2023-06-12T13:30:29.099Z,25.90
2023-06-12T13:32:57.875Z,25.87
2023-06-12T13:35:26.860Z,25.91
2023-06-12T13:37:55.344Z,25.94
2023-06-12T13:40:25.114Z,25.86
2023-06-12T13:42:53.124Z,25.81
2023-06-12T13:45:20.948Z,25.63
2023-06-12T13:47:49.062Z,25.58
2023-06-12T13:50:19.855Z,25.70
2023-06-12T13:52:48.037Z,25.87
2023-06-12T13:55:16.048Z,25.88
2023-06-12T13:57:45.826Z,25.91
2023-06-12T14:00:15.297Z,26.02
2023-06-12T14:02:43.625Z,25.96
2023-06-12T14:05:11.831Z,26.06
2023-06-12T14:07:40.063Z,26.10
2023-06-12T14:10:09.843Z,26.19
2023-06-12T14:12:37.906Z,26.11
2023-06-12T14:15:07.895Z,26.20
2023-06-12T14:17:38.880Z,26.35
2023-06-12T14:20:08.442Z,26.62
2023-06-12T14:22:38.935Z,26.87
2023-06-12T14:25:07.707Z,27.39
2023-06-12T14:27:37.491Z,28.20
2023-06-12T14:30:08.893Z,29.29
2023-06-12T14:32:40.175Z,30.58
2023-06-12T14:35:10.110Z,32.21
2023-06-12T14:37:38.198Z,33.15
2023-06-12T14:40:07.105Z,33.60
2023-06-12T14:42:35.200Z,34.27
2023-06-12T14:45:03.228Z,35.12
2023-06-12T14:47:32.621Z,36.16
2023-06-12T14:50:17.529Z,36.59
2023-06-12T14:52:48.574Z,37.13
2023-06-12T14:55:17.178Z,37.30
2023-06-12T14:57:45.426Z,37.90
2023-06-12T15:00:14.099Z,38.63
2023-06-12T15:02:43.532Z,37.98
2023-06-12T15:05:13.316Z,37.63
2023-06-12T15:07:41.773Z,38.03
2023-06-12T15:10:11.503Z,38.33
2023-06-12T15:12:41.070Z,38.97
2023-06-12T15:15:13.182Z,39.28
2023-06-12T15:17:41.641Z,39.06
2023-06-12T15:20:14.335Z,39.44
2023-06-12T15:22:42.588Z,39.90
2023-06-12T15:25:11.081Z,40.05
2023-06-12T15:27:39.403Z,40.21
2023-06-12T15:30:08.734Z,39.72
2023-06-12T15:32:36.810Z,39.32
2023-06-12T15:35:05.398Z,39.93
2023-06-12T15:37:34.720Z,40.60
2023-06-12T15:40:04.986Z,40.70
2023-06-12T15:42:33.160Z,40.39
2023-06-12T15:45:01.219Z,40.11
2023-06-12T15:47:29.358Z,40.70
2023-06-12T15:49:57.463Z,40.91
2023-06-12T15:52:28.106Z,40.98
2023-06-12T15:55:00.973Z,40.69
2023-06-12T15:57:29.064Z,40.57
2023-06-12T15:59:59.460Z,40.90
2023-06-12T16:02:30.799Z,40.97
2023-06-12T16:04:59.154Z,40.90
2023-06-12T16:07:27.442Z,41.29
2023-06-12T16:09:55.577Z,41.58
2023-06-12T16:12:25.211Z,40.98
2023-06-12T16:14:53.211Z,39.39
2023-06-12T16:17:21.258Z,38.11
2023-06-12T16:19:49.359Z,37.80
2023-06-12T16:22:17.487Z,37.75
2023-06-12T16:24:46.800Z,37.01
2023-06-12T16:27:16.197Z,35.75
2023-06-12T16:29:45.717Z,34.39
2023-06-12T16:32:13.720Z,33.19
2023-06-12T16:34:41.905Z,32.11
2023-06-12T16:37:09.901Z,31.32
2023-06-12T16:39:41.776Z,30.80
2023-06-12T16:42:10.301Z,30.24
2023-06-12T16:44:38.296Z,29.54
2023-06-12T16:47:08.478Z,29.05
2023-06-12T16:49:37.443Z,28.97
2023-06-12T16:52:06.081Z,28.70
2023-06-12T16:54:34.334Z,28.20
2023-06-12T16:57:02.355Z,28.13
2023-06-12T16:59:30.075Z,27.79
2023-06-12T17:01:58.170Z,27.70
2023-06-12T17:04:30.066Z,27.42
2023-06-12T17:06:59.026Z,27.21
2023-06-12T17:09:26.822Z,27.19
2023-06-12T17:11:55.069Z,27.36
2023-06-12T17:14:23.050Z,27.84
2023-06-12T17:16:51.059Z,28.13
2023-06-12T17:19:19.121Z,28.12
2023-06-12T17:21:48.337Z,28.03
2023-06-12T17:24:16.538Z,27.94
2023-06-12T17:26:44.649Z,27.60
2023-06-12T17:29:12.980Z,27.73
2023-06-12T17:31:41.067Z,28.01
2023-06-12T17:34:09.189Z,28.30
2023-06-12T17:36:37.236Z,28.83
2023-06-12T17:39:06.669Z,29.44
2023-06-12T17:41:35.523Z,30.01
2023-06-12T17:44:05.423Z,30.40
2023-06-12T17:46:33.714Z,29.44
2023-06-12T17:49:04.117Z,29.25
2023-06-12T17:51:32.157Z,29.18
2023-06-12T17:54:00.428Z,29.19
2023-06-12T17:56:29.816Z,29.43
2023-06-12T17:58:57.834Z,30.21
2023-06-12T18:01:25.974Z,30.56
2023-06-12T18:03:54.900Z,30.31
2023-06-12T18:06:24.281Z,30.15
2023-06-12T18:08:52.390Z,30.11
2023-06-12T18:11:20.880Z,29.70
2023-06-12T18:13:50.264Z,29.41
2023-06-12T18:16:22.796Z,29.42
2023-06-12T18:18:51.799Z,29.55
2023-06-12T18:21:20.121Z,29.57
2023-06-12T18:23:48.332Z,29.69
2023-06-12T18:26:16.593Z,29.78
2023-06-12T18:28:44.600Z,29.64
2023-06-12T18:31:14.168Z,29.33
2023-06-12T18:33:42.474Z,29.02
2023-06-12T18:36:11.176Z,28.75
2023-06-12T18:38:39.683Z,28.33
2023-06-12T18:41:07.659Z,28.00
2023-06-12T18:43:35.475Z,27.58
2023-06-12T18:46:03.569Z,27.21
2023-06-12T18:48:33.020Z,27.00
2023-06-12T18:51:02.080Z,27.03
2023-06-12T18:53:30.622Z,27.08
2023-06-12T18:55:58.667Z,27.19
2023-06-12T18:58:26.814Z,27.40
2023-06-12T19:00:54.875Z,27.56
2023-06-12T19:03:23.276Z,27.50
2023-06-12T19:05:54.304Z,27.45
2023-06-12T19:08:22.455Z,27.03
2023-06-12T19:10:53.162Z,26.78
2023-06-12T19:13:25.223Z,26.48
2023-06-12T19:15:53.723Z,26.22
2023-06-12T19:18:21.806Z,26.04
2023-06-12T19:20:50.003Z,25.69
2023-06-12T19:23:28.779Z,25.39
2023-06-12T19:25:58.816Z,25.11
2023-06-12T19:28:29.623Z,24.88
2023-06-12T19:30:57.627Z,24.68
2023-06-12T19:33:26.543Z,24.42
2023-06-12T19:35:54.567Z,24.25
2023-06-12T19:38:24.832Z,24.16
2023-06-12T19:40:53.694Z,24.04
2023-06-12T19:43:22.926Z,23.88
2023-06-12T19:45:51.866Z,23.66
2023-06-12T19:48:21.662Z,23.50
2023-06-12T19:50:49.822Z,23.29
2023-06-12T19:53:18.289Z,23.20
2023-06-12T19:55:53.081Z,23.03
2023-06-12T19:58:21.537Z,22.99
2023-06-12T20:00:51.235Z,22.96
2023-06-12T20:03:19.365Z,22.83
2023-06-12T20:05:47.425Z,22.75
2023-06-12T20:08:15.486Z,22.67
2023-06-12T20:10:43.477Z,22.58
2023-06-12T20:13:12.860Z,22.49
2023-06-12T20:15:54.181Z,22.36
2023-06-12T20:18:22.185Z,22.14
2023-06-12T20:20:51.804Z,22.02
2023-06-12T20:23:20.610Z,21.93
2023-06-12T20:25:48.709Z,21.84
2023-06-12T20:28:18.449Z,21.68
2023-06-12T20:30:46.678Z,21.53
2023-06-12T20:33:14.508Z,21.46
2023-06-12T20:35:42.570Z,21.40
2023-06-12T20:38:13.130Z,21.36
2023-06-12T20:40:41.554Z,21.21
2023-06-12T20:43:12.237Z,21.07
2023-06-12T20:45:44.300Z,20.93
2023-06-12T20:48:12.369Z,20.89
2023-06-12T20:50:42.421Z,20.80
2023-06-12T20:53:12.567Z,20.79
2023-06-12T20:55:40.934Z,20.72
2023-06-12T20:58:08.946Z,20.63
2023-06-12T21:00:36.940Z,20.56
2023-06-12T21:03:06.950Z,20.49
2023-06-12T21:05:35.086Z,20.47
2023-06-12T21:08:04.972Z,20.42
2023-06-12T21:10:33.156Z,20.42
2023-06-12T21:13:00.974Z,20.34
2023-06-12T21:15:28.983Z,20.30
2023-06-12T21:17:57.296Z,20.25
2023-06-12T21:20:26.963Z,20.15
2023-06-12T21:22:57.169Z,20.04
2023-06-12T21:25:25.703Z,20.01
2023-06-12T21:27:53.778Z,19.93
2023-06-12T21:30:23.570Z,19.91
2023-06-12T21:32:52.806Z,19.90
2023-06-12T21:35:21.126Z,19.86
2023-06-12T21:37:52.802Z,19.80
2023-06-12T21:40:22.231Z,19.70
2023-06-12T21:42:51.080Z,19.60
2023-06-12T21:45:19.273Z,19.52
2023-06-12T21:47:47.097Z,19.48
2023-06-12T21:50:16.771Z,19.50
2023-06-12T21:52:49.719Z,19.52
2023-06-12T21:55:23.751Z,19.40
2023-06-12T21:57:51.932Z,19.37
2023-06-12T22:00:20.955Z,19.41
2023-06-12T22:02:49.537Z,19.42
2023-06-12T22:05:18.086Z,19.30
2023-06-12T22:07:46.430Z,19.24
2023-06-12T22:10:14.716Z,19.10
2023-06-12T22:12:47.575Z,18.98
2023-06-12T22:15:16.158Z,18.93
2023-06-12T22:17:46.707Z,18.72
2023-06-12T22:20:23.916Z,18.67
2023-06-12T22:22:52.122Z,18.53
2023-06-12T22:25:20.890Z,18.44
2023-06-12T22:27:53.945Z,18.28
2023-06-12T22:30:24.839Z,18.12
2023-06-12T22:32:54.742Z,18.08
2023-06-12T22:35:25.177Z,17.98
2023-06-12T22:37:58.731Z,17.87
2023-06-12T22:40:28.555Z,17.72
2023-06-12T22:43:00.735Z,17.76
2023-06-12T22:45:29.591Z,17.63
2023-06-12T22:47:59.078Z,17.58
2023-06-12T22:50:27.511Z,17.51
2023-06-12T22:52:58.065Z,17.52
2023-06-12T22:55:26.115Z,17.47
2023-06-12T22:57:55.470Z,17.42
2023-06-12T23:00:25.644Z,17.30
2023-06-12T23:02:53.870Z,17.21
2023-06-12T23:05:22.632Z,17.03
2023-06-12T23:07:52.688Z,16.98
2023-06-12T23:10:21.094Z,16.93
2023-06-12T23:12:49.556Z,16.89
2023-06-12T23:15:17.878Z,16.71
2023-06-12T23:17:53.475Z,16.54
2023-06-12T23:20:24.658Z,16.42
2023-06-12T23:22:54.673Z,16.39
2023-06-12T23:25:27.586Z,16.22
2023-06-12T23:28:01.625Z,16.13
2023-06-12T23:30:31.391Z,16.05
2023-06-12T23:33:01.817Z,15.94
2023-06-12T23:35:30.519Z,15.88
2023-06-12T23:38:00.576Z,15.83
2023-06-12T23:40:28.722Z,15.73
2023-06-12T23:42:58.388Z,15.61
2023-06-12T23:45:27.061Z,15.56
2023-06-12T23:47:56.521Z,15.39
2023-06-12T23:50:25.914Z,15.20
2023-06-12T23:52:54.530Z,15.15
2023-06-12T23:55:22.585Z,15.09
2023-06-12T23:57:50.582Z,15.02
